AirNav   Air Wisconsin Up To $57,000 Bonus
 
 1008 users online  

5OK8 Perkins Airport
Thomas, Oklahoma, USA

GOING TO THOMAS?


FAA INFORMATION EFFECTIVE 04 NOVEMBER 2021

Location

FAA Identifier: 5OK8
Lat/Long: 35-43-47.2794N 098-39-31.3194W
35-43.787990N 098-39.521990W
35.7297998,-98.6586998
(estimated)
Elevation: 1700 ft. / 518 m (estimated)
From city: 5 miles E of THOMAS, OK
Time zone: UTC -5 (UTC -6 during Standard Time)
Zip code: 73669

Airport Operations

Airport use: Private use. Permission required prior to landing
Activation date: 10/2019
Control tower: no
ARTCC: FORT WORTH CENTER
FSS: MC ALESTER FLIGHT SERVICE STATION
Attendance: 
Segmented circle: no

Airport Communications

WX AWOS-3PT at OJA (11 nm S): 118.575 (580-772-7020)
WX AWOS-3 at JWG (14 nm NE): 134.175 (580-623-7388)
WX AWOS-3 at CLK (18 nm SW): 119.225 (580-323-8477)

Nearby radio navigation aids

VOR radial/distance  VOR name  Freq  Var
IFIr253/32.2KINGFISHER VORTAC114.7009E
BFVr037/39.9BURNS FLAT VORTAC110.0005E

Airport Services

Runway Information

Runway 17/35

Dimensions: 1950 x 80 ft. / 594 x 24 m
Surface: turf, in fair condition
RUNWAY 17  RUNWAY 35
Traffic pattern: rightright

Airport Ownership and Management from official FAA records

Ownership: Privately-owned
Owner: SCOTT PERKINS
24319 E 890 RD
THOMAS, OK 73669
Phone 580-302-1111
Manager: SCOTT PERKINS
24319 E 890 RD
THOMAS, OK 73669
Phone 580-302-1111

Airport Operational Statistics

Aircraft based on the field: 2
Single engine airplanes: 1
Multi engine airplanes: 1
    

Instrument Procedures

There are no published instrument procedures at 5OK8.

Some nearby airports with instrument procedures:

1O4 - Thomas Municipal Airport (4 nm W)
KOJA - Thomas P Stafford Airport (11 nm S)
KJWG - Watonga Regional Airport (14 nm NE)
KCLK - Clinton Regional Airport (18 nm SW)
2O8 - Hinton Municipal Airport (20 nm SE)
 
Loc | Ops | Rwys | IFR | FBO | Links
Com | Nav | Svcs | Stats | Notes

AirBoss

 
Aerial photo
No photo
 
Airport distance calculator
Flying to Perkins Airport? Find the distance to fly.

From to 5OK8

Sunrise and sunset
Times for 30-Nov-2021
 Local
(UTC-6)
 Zulu
(UTC)
Morning civil twilight06:5812:58
Sunrise07:2613:26
Sunset17:2023:20
Evening civil twilight17:4823:48

Current date and time
Zulu (UTC)  01-Dec-2021 04:00:48
Local (UTC-6)  30-Nov-2021 22:00:48
 
METAR
KOJA 
11nm S 
010335Z AUTO 00000KT 10SM CLR 09/04 A3000 RMK AO2 T00900042
KJWG 
14nm NE 
010335Z AUTO 28006KT 10SM CLR 07/03 A3002 RMK AO2 T00690034
KCLK 
18nm SW 
010355Z AUTO 00000KT 10SM CLR 07/03 A3001 RMK AO2
TAF
KCSM 
35nm SW 
010028Z 0100/0124 34007KT P6SM SCT250
NOTAMs
Click for the latest NOTAMs
NOTAMs are issued by the DoD/FAA and will open in a separate window not controlled by AirNav.

 

 
 

Would you like to see your business listed on this page?

 If your business provides an interesting product or service to pilots, flight crews, aircraft, or users of the Perkins Airport, you should consider listing it here.  To start the listing process, click on the button below
 
Add a business
 

Other Pages about Perkins Airport

Update a link
 
Copyright © AirNav, LLC. All rights reserved. Privacy Policy  Contact